TNCM/SXM METAR and TAF weather

Enter ICAO airport designator
Station Type Date Time Source
TNCM METAR 2021/03/09 10:00 UTC NOAA

TNCM 091000Z 03011KT 9999 VCSH FEW018 24/20 Q1018 NOSIG RMK VCSH SE


Station Type Date Time Source
TNCM Decoded METAR 2021/03/09 10:00 UTC NOAA

Juliana Airport, Saint Maarten, Netherlands Antilles (TNCM) 18-03N 063-07W 9M
Mar 09, 2021 - 05:00 AM EST / 2021.03.09 1000 UTC
Wind: from the NNE (030 degrees) at 13 MPH (11 KT):0
Visibility: greater than 7 mile(s):0
Sky conditions: mostly clear
Weather: showers in the vicinity
Temperature: 75 F (24 C)
Dew Point: 68 F (20 C)
Relative Humidity: 78%
Pressure (altimeter): 30.06 in. Hg (1018 hPa)
ob: TNCM 091000Z 03011KT 9999 VCSH FEW018 24/20 Q1018 NOSIG RMK VCSH SE
cycle: 10

Station Type Date Time Source
TNCM TAF 2021/03/09 06:42 UTC NOAA

TAF TNCM 090538Z 0906/1006 05010KT P6SM FEW020
FM091200 08012KT P6SM SCT020

Example: see airport list